Time;durP1;ratioP1;P1;durP2;ratioP2;P2;SDS_P1;SDS_P2;PMS_P1;PMS_P2;Temp;Humidity;BMP_temperature;BMP_pressure;BME280_temperature;BME280_humidity;BME280_pressure;Samples;Min_cycle;Max_cycle;Signal;HPM_P1;HPM_P2
2022/09/04 00:00:55;;;;;;;0.88;0.50;;;11.30;99.90;;;;;;5102048;28;20453;-63
2022/09/04 00:03:40;;;;;;;1.10;0.75;;;11.30;99.90;;;;;;5098078;28;20127;-71
2022/09/04 00:06:18;;;;;;;0.35;0.32;;;11.30;99.90;;;;;;5101228;28;20414;-63
2022/09/04 00:09:02;;;;;;;1.17;0.80;;;11.30;99.90;;;;;;5105676;28;20059;-68
2022/09/04 00:11:43;;;;;;;1.98;0.50;;;11.30;99.90;;;;;;5108761;28;20062;-65
2022/09/04 00:14:18;;;;;;;0.47;0.47;;;11.20;99.90;;;;;;5106478;28;20043;-64
2022/09/04 00:17:02;;;;;;;0.73;0.60;;;11.20;99.90;;;;;;5102991;28;20086;-64
2022/09/04 00:19:55;;;;;;;1.83;0.70;;;11.20;99.90;;;;;;5105936;28;20036;-72
2022/09/04 00:22:42;;;;;;;0.60;0.40;;;11.20;99.90;;;;;;5106606;28;20058;-65
2022/09/04 00:25:21;;;;;;;0.90;0.52;;;11.20;99.90;;;;;;5106721;28;20047;-63
2022/09/04 00:27:57;;;;;;;1.17;1.05;;;11.20;99.90;;;;;;5107675;28;20681;-68
2022/09/04 00:30:25;;;;;;;2.17;0.55;;;11.20;99.90;;;;;;5108014;28;20100;-65
2022/09/04 00:33:22;;;;;;;0.98;0.45;;;11.20;99.90;;;;;;5105123;28;20389;-64
2022/09/04 00:35:58;;;;;;;0.73;0.50;;;11.20;99.90;;;;;;5106050;28;20621;-71
2022/09/04 00:38:39;;;;;;;0.70;0.55;;;11.20;99.90;;;;;;5105631;28;20067;-67
2022/09/04 00:41:33;;;;;;;1.27;0.43;;;11.20;99.90;;;;;;5117603;27;20054;-69
2022/09/04 00:44:29;;;;;;;0.75;0.40;;;11.20;99.90;;;;;;5095515;28;20100;-64
2022/09/04 00:47:24;;;;;;;0.55;0.40;;;11.20;99.90;;;;;;5105539;28;20100;-64
2022/09/04 00:50:08;;;;;;;1.48;0.70;;;11.20;99.90;;;;;;5107069;28;20130;-68
2022/09/04 00:52:53;;;;;;;0.52;0.40;;;11.10;99.90;;;;;;5102909;28;20081;-65
2022/09/04 00:55:45;;;;;;;1.90;0.68;;;11.20;99.90;;;;;;5107834;28;20081;-64
2022/09/04 00:58:15;;;;;;;0.60;0.30;;;11.20;99.90;;;;;;5085525;28;20446;-66
2022/09/04 01:00:46;;;;;;;0.80;0.60;;;11.20;99.90;;;;;;5103175;28;20709;-69
2022/09/04 01:03:54;;;;;;;0.60;0.45;;;11.20;99.90;;;;;;5106870;28;20288;-71
2022/09/04 01:06:38;;;;;;;0.60;0.52;;;11.20;99.90;;;;;;5070243;28;20046;-68
2022/09/04 01:09:33;;;;;;;0.80;0.55;;;11.10;99.90;;;;;;5102654;28;20520;-71
2022/09/04 01:12:12;;;;;;;1.08;0.28;;;11.10;99.90;;;;;;5107316;28;20549;-73
2022/09/04 01:14:54;;;;;;;0.85;0.57;;;11.10;99.90;;;;;;5105438;28;20077;-68
2022/09/04 01:17:30;;;;;;;0.85;0.50;;;11.20;99.90;;;;;;5096884;28;20048;-65
2022/09/04 01:20:03;;;;;;;0.35;0.30;;;11.20;99.90;;;;;;5107233;28;20051;-65
2022/09/04 01:22:32;;;;;;;0.50;0.30;;;11.10;99.90;;;;;;5107076;28;20112;-66
2022/09/04 01:25:04;;;;;;;2.03;0.52;;;11.20;99.90;;;;;;5101731;28;20099;-73
2022/09/04 01:27:54;;;;;;;0.65;0.40;;;11.20;99.90;;;;;;5106368;28;20050;-65
2022/09/04 01:30:22;;;;;;;0.93;0.55;;;11.20;99.90;;;;;;5094901;28;20075;-68
2022/09/04 01:33:07;;;;;;;0.55;0.50;;;11.20;99.90;;;;;;5101818;28;20105;-72
2022/09/04 01:35:55;;;;;;;0.40;0.40;;;11.20;99.90;;;;;;5106492;27;20462;-64
2022/09/04 01:38:53;;;;;;;0.52;0.38;;;11.20;99.90;;;;;;5104706;27;20529;-64
2022/09/04 01:41:47;;;;;;;0.65;0.65;;;11.20;99.90;;;;;;5102303;28;20180;-66
2022/09/04 01:44:14;;;;;;;1.60;0.45;;;11.20;99.90;;;;;;5105207;27;20086;-74
2022/09/04 01:47:10;;;;;;;0.52;0.40;;;11.20;99.90;;;;;;5104174;28;20095;-66
2022/09/04 01:49:57;;;;;;;0.73;0.30;;;11.20;99.90;;;;;;5105904;27;20088;-67
2022/09/04 01:53:00;;;;;;;0.43;0.43;;;11.20;99.90;;;;;;5105538;28;20074;-66
2022/09/04 01:55:50;;;;;;;0.50;0.50;;;11.30;99.90;;;;;;5101991;28;20047;-64
2022/09/04 01:58:51;;;;;;;0.75;0.75;;;11.30;99.90;;;;;;5102204;27;20071;-70
2022/09/04 02:01:28;;;;;;;0.47;0.40;;;11.30;99.90;;;;;;5100465;28;20059;-69
2022/09/04 02:04:08;;;;;;;0.30;0.30;;;11.30;99.90;;;;;;5091127;27;20050;-64
2022/09/04 02:06:59;;;;;;;0.63;0.40;;;11.30;99.90;;;;;;5098958;27;20055;-70
2022/09/04 02:09:35;;;;;;;0.30;0.20;;;11.30;99.90;;;;;;5098571;28;20040;-71
2022/09/04 02:12:24;;;;;;;1.58;0.40;;;11.30;99.90;;;;;;5099196;28;20177;-70
2022/09/04 02:15:24;;;;;;;0.30;0.28;;;11.30;99.90;;;;;;5102947;27;20077;-66
2022/09/04 02:18:23;;;;;;;0.30;0.30;;;11.30;99.90;;;;;;5103149;28;20100;-68
2022/09/04 02:21:17;;;;;;;0.30;0.30;;;11.30;99.90;;;;;;5100530;28;20040;-64
2022/09/04 02:24:22;;;;;;;0.80;0.45;;;11.30;99.90;;;;;;5064959;28;20443;-66
2022/09/04 02:26:56;;;;;;;0.60;0.40;;;11.30;99.90;;;;;;5091419;28;20488;-71
2022/09/04 02:29:46;;;;;;;0.20;0.20;;;11.30;99.90;;;;;;5105999;28;20534;-67
2022/09/04 02:32:48;;;;;;;0.53;0.40;;;11.30;99.90;;;;;;5106819;28;20067;-64
2022/09/04 02:35:31;;;;;;;1.75;0.32;;;11.30;99.90;;;;;;5098949;27;20768;-66
2022/09/04 02:38:11;;;;;;;0.85;0.47;;;11.30;99.90;;;;;;5102910;28;20074;-67
2022/09/04 02:40:59;;;;;;;0.40;0.32;;;11.40;99.90;;;;;;5102149;28;20481;-63
2022/09/04 02:43:43;;;;;;;1.88;0.57;;;11.30;99.90;;;;;;5112750;27;20162;-65
2022/09/04 02:46:25;;;;;;;1.52;1.10;;;11.30;99.90;;;;;;5098505;28;20153;-70
2022/09/04 02:49:17;;;;;;;1.52;0.70;;;11.20;99.90;;;;;;5098241;28;20046;-63
2022/09/04 02:51:53;;;;;;;1.45;0.60;;;11.20;99.90;;;;;;5108418;28;20058;-63
2022/09/04 02:54:32;;;;;;;1.75;0.88;;;11.10;99.90;;;;;;5099119;28;20039;-64
2022/09/04 02:57:49;;;;;;;4.57;1.55;;;11.00;99.90;;;;;;5107254;28;20074;-66
2022/09/04 03:00:18;;;;;;;2.47;0.70;;;11.00;99.90;;;;;;5102760;27;20433;-63
2022/09/04 03:03:01;;;;;;;3.80;1.48;;;11.00;99.90;;;;;;5093235;28;20418;-69
2022/09/04 03:05:41;;;;;;;5.93;1.48;;;11.00;99.90;;;;;;5101222;28;20426;-67
2022/09/04 03:08:24;;;;;;;2.08;1.02;;;10.90;99.90;;;;;;5104434;27;20826;-69
2022/09/04 03:11:18;;;;;;;1.77;1.02;;;10.90;99.90;;;;;;5102530;28;20513;-63
2022/09/04 03:14:02;;;;;;;2.80;1.05;;;10.80;99.90;;;;;;5108025;27;20120;-67
2022/09/04 03:16:34;;;;;;;2.35;0.90;;;10.80;99.90;;;;;;5103871;28;20051;-66
2022/09/04 03:19:22;;;;;;;1.75;0.55;;;10.80;99.90;;;;;;5101403;27;20059;-62
2022/09/04 03:22:25;;;;;;;1.67;1.10;;;10.80;99.90;;;;;;5107507;27;20048;-69
2022/09/04 03:25:38;;;;;;;0.77;0.77;;;10.70;99.90;;;;;;5099429;28;20434;-63
2022/09/04 03:28:11;;;;;;;4.78;1.02;;;10.70;99.90;;;;;;5099176;28;20869;-62
2022/09/04 03:30:39;;;;;;;2.85;1.58;;;10.70;99.90;;;;;;5106656;27;20042;-64
2022/09/04 03:33:28;;;;;;;1.65;0.70;;;10.70;99.90;;;;;;5100297;28;20481;-62
2022/09/04 03:36:22;;;;;;;2.05;1.50;;;10.70;99.90;;;;;;5108750;27;20125;-63
2022/09/04 03:39:11;;;;;;;1.55;0.93;;;10.60;99.90;;;;;;5100894;28;20044;-69
2022/09/04 03:41:49;;;;;;;1.38;0.85;;;10.60;99.90;;;;;;5105410;28;20063;-64
2022/09/04 03:44:32;;;;;;;1.83;0.85;;;10.60;99.90;;;;;;5097495;28;20384;-62
2022/09/04 03:47:15;;;;;;;1.15;1.05;;;10.70;99.90;;;;;;5103724;28;20048;-68
2022/09/04 03:50:04;;;;;;;2.83;1.52;;;10.60;99.90;;;;;;5106088;28;20034;-66
2022/09/04 03:52:51;;;;;;;7.22;1.90;;;10.60;99.90;;;;;;5107069;28;20055;-69
2022/09/04 03:55:40;;;;;;;1.13;1.02;;;10.60;99.90;;;;;;5080679;27;20101;-62
2022/09/04 03:58:20;;;;;;;1.45;1.35;;;10.60;99.90;;;;;;5104794;28;20100;-62
2022/09/04 04:01:17;;;;;;;1.65;0.98;;;10.60;99.90;;;;;;5104318;28;20055;-66
2022/09/04 04:03:56;;;;;;;1.02;0.73;;;10.60;99.90;;;;;;5104934;28;20078;-63
2022/09/04 04:06:35;;;;;;;2.75;1.60;;;10.60;99.90;;;;;;5108387;27;20035;-64
2022/09/04 04:09:32;;;;;;;2.47;0.98;;;10.60;99.90;;;;;;5104087;28;20123;-62
2022/09/04 04:12:52;;;;;;;1.08;0.75;;;10.60;99.90;;;;;;5106419;28;20154;-64
2022/09/04 04:15:40;;;;;;;1.37;0.90;;;10.60;99.90;;;;;;5102219;28;20035;-64
2022/09/04 04:18:18;;;;;;;2.30;1.98;;;10.60;99.90;;;;;;5105558;28;20520;-71
2022/09/04 04:21:16;;;;;;;0.90;0.90;;;10.70;99.90;;;;;;5099809;28;20048;-65
2022/09/04 04:23:46;;;;;;;1.20;1.02;;;10.70;99.90;;;;;;5098935;28;20047;-62
2022/09/04 04:26:20;;;;;;;1.80;1.05;;;10.70;99.90;;;;;;5104775;28;20145;-64
2022/09/04 04:28:58;;;;;;;1.27;1.17;;;10.70;99.90;;;;;;5104455;28;20071;-65
2022/09/04 04:31:33;;;;;;;2.58;0.90;;;10.70;99.90;;;;;;5082069;28;20548;-69
2022/09/04 04:34:18;;;;;;;3.08;1.13;;;10.70;99.90;;;;;;5096375;28;20043;-68
2022/09/04 04:37:06;;;;;;;0.80;0.80;;;10.70;99.90;;;;;;5095973;28;20043;-70
2022/09/04 04:39:43;;;;;;;1.67;1.58;;;10.70;99.90;;;;;;5094223;28;20104;-66
2022/09/04 04:42:24;;;;;;;0.95;0.95;;;10.70;99.90;;;;;;5105798;28;20040;-64
2022/09/04 04:48:14;;;;;;;1.17;0.90;;;10.80;99.90;;;;;;5094364;28;20092;-63
2022/09/04 04:50:53;;;;;;;1.05;0.90;;;10.80;99.90;;;;;;5045873;28;20043;-65
2022/09/04 04:53:38;;;;;;;2.22;1.05;;;10.70;99.90;;;;;;5097858;28;20116;-62
2022/09/04 04:56:13;;;;;;;1.63;1.10;;;10.70;99.90;;;;;;5109077;28;20092;-63
2022/09/04 04:59:05;;;;;;;2.03;1.10;;;10.70;99.90;;;;;;5107152;28;20048;-70
2022/09/04 05:01:38;;;;;;;1.00;1.00;;;10.70;99.90;;;;;;5103357;28;20063;-64
2022/09/04 05:04:16;;;;;;;1.48;1.13;;;10.70;99.90;;;;;;5101638;28;20044;-62
2022/09/04 05:07:04;;;;;;;2.03;1.35;;;10.60;99.90;;;;;;5101295;28;20809;-65
2022/09/04 05:09:54;;;;;;;1.55;1.45;;;10.60;99.90;;;;;;5108458;28;20092;-65
2022/09/04 05:12:34;;;;;;;0.60;0.60;;;10.60;99.90;;;;;;5108845;28;20047;-66
2022/09/04 05:15:12;;;;;;;1.58;0.82;;;10.60;99.90;;;;;;5106693;28;20078;-62
2022/09/04 05:17:54;;;;;;;3.13;0.77;;;10.60;99.90;;;;;;5091885;28;20086;-72
2022/09/04 05:21:03;;;;;;;1.85;0.65;;;10.60;99.90;;;;;;5106256;28;20462;-66
2022/09/04 05:23:50;;;;;;;1.85;0.60;;;10.60;99.90;;;;;;5076014;27;20039;-65
2022/09/04 05:26:39;;;;;;;1.08;0.77;;;10.60;99.90;;;;;;5107290;28;20412;-63
2022/09/04 05:29:12;;;;;;;0.98;0.65;;;10.60;99.90;;;;;;5104524;27;20067;-62
2022/09/04 05:32:04;;;;;;;0.65;0.60;;;10.70;99.90;;;;;;5103751;27;20516;-67
2022/09/04 05:35:10;;;;;;;0.73;0.73;;;10.70;99.90;;;;;;5108049;27;20067;-65
2022/09/04 05:37:56;;;;;;;0.63;0.50;;;10.80;99.90;;;;;;5105860;27;20093;-71
2022/09/04 05:40:28;;;;;;;1.25;1.15;;;10.90;99.90;;;;;;5109820;27;20036;-69
2022/09/04 05:43:23;;;;;;;1.27;0.93;;;11.00;99.90;;;;;;5100597;28;20048;-69
2022/09/04 05:45:59;;;;;;;1.25;0.68;;;11.00;99.90;;;;;;5104026;27;20047;-65
2022/09/04 05:48:36;;;;;;;0.90;0.75;;;11.10;99.90;;;;;;5108716;27;20039;-65
2022/09/04 05:51:39;;;;;;;0.80;0.80;;;11.20;99.90;;;;;;5105969;27;20052;-68
2022/09/04 05:54:34;;;;;;;0.75;0.75;;;11.20;99.90;;;;;;5103603;27;20059;-65
2022/09/04 05:57:24;;;;;;;0.93;0.70;;;11.30;99.90;;;;;;5100535;27;20089;-70
2022/09/04 06:00:10;;;;;;;0.60;0.60;;;11.30;99.90;;;;;;5103067;27;20163;-62
2022/09/04 06:03:18;;;;;;;0.70;0.70;;;11.30;99.90;;;;;;5101883;27;20047;-67
2022/09/04 06:06:09;;;;;;;0.93;0.82;;;11.40;99.90;;;;;;5095366;27;20043;-62
2022/09/04 06:09:20;;;;;;;0.88;0.80;;;11.40;99.90;;;;;;5100147;28;20098;-66
2022/09/04 06:11:50;;;;;;;0.70;0.70;;;11.50;99.90;;;;;;5102971;27;20135;-62
2022/09/04 06:14:41;;;;;;;1.23;0.90;;;11.60;99.90;;;;;;5105064;27;20043;-62
2022/09/04 06:17:14;;;;;;;0.80;0.80;;;11.70;99.90;;;;;;5102109;27;20782;-68
2022/09/04 06:19:46;;;;;;;0.85;0.80;;;11.80;99.90;;;;;;5100537;27;20473;-73
2022/09/04 06:22:34;;;;;;;0.82;0.52;;;11.90;99.90;;;;;;5102253;27;20060;-69
2022/09/04 06:25:12;;;;;;;1.00;0.90;;;12.00;99.90;;;;;;5100265;27;20056;-63
2022/09/04 06:28:00;;;;;;;0.70;0.70;;;12.10;99.90;;;;;;5102733;27;20053;-68
2022/09/04 06:30:41;;;;;;;0.77;0.77;;;12.10;99.90;;;;;;5100134;27;20088;-61
2022/09/04 06:33:20;;;;;;;1.90;0.73;;;12.20;99.90;;;;;;5098267;27;20113;-62
2022/09/04 06:36:05;;;;;;;0.50;0.50;;;12.20;99.90;;;;;;5104029;27;20048;-64
2022/09/04 06:38:52;;;;;;;0.65;0.65;;;12.30;99.90;;;;;;5104629;27;20071;-72
2022/09/04 06:41:58;;;;;;;1.38;0.43;;;12.40;99.90;;;;;;5103724;27;20043;-68
2022/09/04 06:45:00;;;;;;;0.50;0.50;;;12.50;99.90;;;;;;5106485;27;20112;-68
2022/09/04 06:47:47;;;;;;;1.75;0.65;;;12.50;99.90;;;;;;5102692;27;20353;-65
2022/09/04 06:50:24;;;;;;;0.77;0.77;;;12.70;99.90;;;;;;5101706;27;20055;-64
2022/09/04 06:53:05;;;;;;;0.88;0.88;;;12.90;99.90;;;;;;5102450;27;20701;-62
2022/09/04 06:55:52;;;;;;;1.05;0.80;;;12.90;99.90;;;;;;5107991;27;20154;-62
2022/09/04 06:58:46;;;;;;;0.70;0.70;;;13.10;99.90;;;;;;5099157;27;20886;-64
2022/09/04 07:01:32;;;;;;;2.10;0.55;;;13.20;99.90;;;;;;5100323;27;20039;-62
2022/09/04 07:04:23;;;;;;;1.65;0.77;;;13.30;99.90;;;;;;5103862;27;20040;-64
2022/09/04 07:06:57;;;;;;;;;;;13.40;99.90;;;;;;5100189;27;20100;-68
2022/09/04 07:09:50;;;;;;;0.40;0.40;;;13.50;99.90;;;;;;5103846;27;20007;-66
2022/09/04 07:12:17;;;;;;;0.88;0.65;;;13.50;99.90;;;;;;5087745;27;20059;-67
2022/09/04 07:15:19;;;;;;;1.73;1.08;;;13.70;99.90;;;;;;5095396;27;20039;-63
2022/09/04 07:17:49;;;;;;;0.47;0.47;;;13.80;99.90;;;;;;5098846;27;20556;-62
2022/09/04 07:20:30;;;;;;;0.73;0.55;;;14.00;99.90;;;;;;5100390;27;20043;-67
2022/09/04 07:23:29;;;;;;;1.10;0.50;;;14.10;99.90;;;;;;5098589;28;20703;-67
2022/09/04 07:26:18;;;;;;;0.40;0.40;;;14.20;99.90;;;;;;5101933;27;20092;-73
2022/09/04 07:28:54;;;;;;;0.68;0.68;;;14.30;99.90;;;;;;5100689;27;20139;-68
2022/09/04 07:31:37;;;;;;;1.05;0.95;;;14.30;99.90;;;;;;5098909;27;20538;-66
2022/09/04 07:34:39;;;;;;;0.52;0.30;;;14.40;99.90;;;;;;5104387;28;20055;-70
2022/09/04 07:37:16;;;;;;;3.40;0.70;;;14.40;99.90;;;;;;5100885;27;20063;-66
2022/09/04 07:40:02;;;;;;;0.40;0.40;;;14.40;99.90;;;;;;5101940;27;20106;-66
2022/09/04 07:42:37;;;;;;;1.17;0.63;;;14.40;99.90;;;;;;5100688;27;20074;-65
2022/09/04 07:45:26;;;;;;;0.60;0.40;;;14.50;99.90;;;;;;5098561;28;20048;-63
2022/09/04 07:48:03;;;;;;;2.58;0.77;;;14.50;99.90;;;;;;5098847;27;20042;-68
2022/09/04 07:50:38;;;;;;;0.60;0.60;;;14.50;99.90;;;;;;5104040;28;20130;-64
2022/09/04 07:53:13;;;;;;;1.15;0.47;;;14.60;99.90;;;;;;5099657;28;20040;-71
2022/09/04 07:55:45;;;;;;;0.40;0.40;;;14.50;99.90;;;;;;5107027;28;20074;-70
2022/09/04 07:58:19;;;;;;;1.55;1.45;;;14.50;99.90;;;;;;5103193;28;20044;-63
2022/09/04 08:01:15;;;;;;;0.50;0.50;;;14.50;99.90;;;;;;5098802;28;20042;-68
2022/09/04 08:04:19;;;;;;;0.30;0.30;;;14.40;99.90;;;;;;5098996;28;20043;-66
2022/09/04 08:07:05;;;;;;;0.47;0.47;;;14.40;99.90;;;;;;5102779;28;20044;-69
2022/09/04 08:09:46;;;;;;;;;;;14.40;99.90;;;;;;5107038;28;20047;-67
2022/09/04 08:12:45;;;;;;;1.58;1.25;;;14.50;99.90;;;;;;5102904;28;20252;-62
2022/09/04 08:15:25;;;;;;;0.93;0.63;;;14.40;99.90;;;;;;5099769;28;20071;-66
2022/09/04 08:18:21;;;;;;;0.65;0.65;;;14.40;99.90;;;;;;5102331;28;20501;-66
2022/09/04 08:21:11;;;;;;;0.73;0.60;;;14.40;99.90;;;;;;5067373;28;20043;-75
2022/09/04 08:24:01;;;;;;;1.58;0.60;;;14.40;99.90;;;;;;5103446;28;20094;-72
2022/09/04 08:26:42;;;;;;;0.85;0.77;;;14.40;99.90;;;;;;5075344;28;20076;-65
2022/09/04 08:29:26;;;;;;;0.77;0.70;;;14.40;99.90;;;;;;5107376;28;20059;-67
2022/09/04 08:32:03;;;;;;;0.77;0.77;;;14.40;99.90;;;;;;5107975;28;20070;-69
2022/09/04 08:34:46;;;;;;;1.20;1.02;;;14.40;99.90;;;;;;5103119;27;20044;-63
2022/09/04 08:37:26;;;;;;;1.33;1.23;;;14.30;99.90;;;;;;5105798;28;20119;-67
2022/09/04 08:40:15;;;;;;;0.68;0.60;;;14.30;99.90;;;;;;5109256;27;20501;-66
2022/09/04 08:43:23;;;;;;;0.50;0.50;;;14.30;99.90;;;;;;5106462;27;20043;-75
2022/09/04 08:46:10;;;;;;;1.30;0.85;;;14.40;99.90;;;;;;5077248;28;20044;-70
2022/09/04 08:49:10;;;;;;;0.65;0.55;;;14.40;99.90;;;;;;5106545;28;20051;-63
2022/09/04 08:52:00;;;;;;;0.60;0.60;;;14.40;99.90;;;;;;5105403;27;20050;-64
2022/09/04 08:54:42;;;;;;;0.50;0.50;;;14.40;99.90;;;;;;5108696;28;20081;-64
2022/09/04 08:57:38;;;;;;;1.40;0.80;;;14.40;99.90;;;;;;5107925;28;20885;-72
2022/09/04 09:00:34;;;;;;;2.05;0.95;;;14.30;99.90;;;;;;5101533;28;20130;-64
2022/09/04 09:03:29;;;;;;;1.58;1.27;;;14.30;99.90;;;;;;5098292;28;20065;-64
2022/09/04 09:06:14;;;;;;;1.30;1.02;;;14.40;99.90;;;;;;5108382;27;20043;-64
2022/09/04 09:09:00;;;;;;;1.15;0.28;;;14.40;99.90;;;;;;5097352;28;20051;-64
2022/09/04 09:11:52;;;;;;;0.40;0.40;;;14.30;99.90;;;;;;5090781;28;20036;-63
2022/09/04 09:14:43;;;;;;;0.75;0.47;;;14.30;99.90;;;;;;5094881;27;20134;-69
2022/09/04 09:17:13;;;;;;;0.30;0.30;;;14.30;99.90;;;;;;5098574;28;20109;-63
2022/09/04 09:19:57;;;;;;;2.42;1.00;;;14.30;99.90;;;;;;5105997;28;20109;-68
2022/09/04 09:22:39;;;;;;;1.60;1.50;;;14.20;99.90;;;;;;5108744;27;20121;-64
2022/09/04 09:25:21;;;;;;;1.17;0.77;;;14.20;99.90;;;;;;5100789;28;20040;-72
2022/09/04 09:28:18;;;;;;;1.80;0.50;;;14.30;99.90;;;;;;5111776;27;20131;-67
2022/09/04 09:31:11;;;;;;;0.35;0.35;;;14.30;99.90;;;;;;5104228;27;20077;-64
2022/09/04 09:34:08;;;;;;;0.68;0.50;;;14.30;99.90;;;;;;5109501;28;20081;-64
2022/09/04 09:36:43;;;;;;;0.68;0.20;;;14.40;99.90;;;;;;5105309;28;20043;-63
2022/09/04 09:39:40;;;;;;;0.93;0.82;;;14.50;99.90;;;;;;5087658;28;20135;-64
2022/09/04 09:42:21;;;;;;;0.65;0.30;;;14.50;99.90;;;;;;5115507;27;20056;-70
2022/09/04 09:45:13;;;;;;;0.35;0.30;;;14.60;99.90;;;;;;5107707;28;20051;-72
2022/09/04 09:47:40;;;;;;;0.60;0.60;;;14.70;99.90;;;;;;5110289;28;20039;-69
2022/09/04 09:50:31;;;;;;;0.47;0.47;;;14.80;99.90;;;;;;5109463;28;20063;-63
2022/09/04 09:52:58;;;;;;;0.52;0.50;;;14.80;99.90;;;;;;5107878;28;20789;-73
2022/09/04 09:55:43;;;;;;;0.47;0.43;;;14.80;99.90;;;;;;5097753;27;20116;-63
2022/09/04 09:58:18;;;;;;;0.70;0.35;;;14.80;99.90;;;;;;5098391;28;20067;-65
2022/09/04 10:01:09;;;;;;;0.47;0.40;;;14.80;99.90;;;;;;5106628;28;20823;-66
2022/09/04 10:03:42;;;;;;;0.77;0.52;;;14.70;99.90;;;;;;5089740;28;20044;-73
2022/09/04 10:06:48;;;;;;;1.38;0.60;;;14.70;99.90;;;;;;5104568;28;20062;-66
2022/09/04 10:09:42;;;;;;;1.35;0.40;;;14.60;99.90;;;;;;5107828;27;20043;-64
2022/09/04 10:12:46;;;;;;;1.65;0.60;;;14.60;99.90;;;;;;5107107;27;20101;-63
2022/09/04 10:15:34;;;;;;;0.45;0.38;;;14.60;99.90;;;;;;5101020;28;20087;-64
2022/09/04 10:18:23;;;;;;;0.95;0.52;;;14.50;99.90;;;;;;5109851;28;20453;-64
2022/09/04 10:21:19;;;;;;;0.85;0.85;;;14.40;99.90;;;;;;5107522;28;20142;-70
2022/09/04 10:23:59;;;;;;;2.00;0.57;;;14.50;99.90;;;;;;5101095;28;20035;-64
2022/09/04 10:26:34;;;;;;;1.27;0.60;;;14.60;99.90;;;;;;5115609;27;20039;-64
2022/09/04 10:29:13;;;;;;;0.57;0.57;;;14.60;99.90;;;;;;5105860;28;20100;-64
2022/09/04 10:32:12;;;;;;;0.93;0.50;;;14.80;99.90;;;;;;5104165;28;20108;-63
2022/09/04 10:34:53;;;;;;;2.80;0.70;;;14.80;99.90;;;;;;5107388;28;20047;-70
2022/09/04 10:37:47;;;;;;;0.73;0.68;;;14.90;99.90;;;;;;5098047;28;20073;-67
2022/09/04 10:40:36;;;;;;;0.93;0.50;;;14.90;99.90;;;;;;5107871;28;20473;-66
2022/09/04 10:43:31;;;;;;;1.33;0.45;;;15.00;99.90;;;;;;5107707;27;20048;-64
2022/09/04 10:46:10;;;;;;;0.60;0.60;;;15.00;99.90;;;;;;5108531;28;20047;-63
2022/09/04 10:49:18;;;;;;;1.38;0.47;;;15.00;99.90;;;;;;5100602;28;20101;-71
2022/09/04 10:52:16;;;;;;;0.73;0.40;;;15.00;99.90;;;;;;5107997;27;20082;-65
2022/09/04 10:55:17;;;;;;;1.77;0.90;;;15.10;99.90;;;;;;5094648;28;20600;-63
2022/09/04 10:58:22;;;;;;;5.35;1.00;;;15.10;99.90;;;;;;5106717;28;20035;-64
2022/09/04 11:01:19;;;;;;;0.77;0.70;;;15.20;99.90;;;;;;5095793;28;20489;-67
2022/09/04 11:04:12;;;;;;;1.52;0.80;;;15.30;99.90;;;;;;5108551;28;20051;-64
2022/09/04 11:06:54;;;;;;;1.05;0.63;;;15.30;99.90;;;;;;5101009;28;20109;-72
2022/09/04 11:09:37;;;;;;;2.20;0.73;;;15.30;99.90;;;;;;5101780;28;20097;-63
2022/09/04 11:12:46;;;;;;;2.25;0.45;;;15.40;99.90;;;;;;5108362;28;20335;-63
2022/09/04 11:15:16;;;;;;;1.42;0.73;;;15.30;99.90;;;;;;5104526;27;20043;-63
2022/09/04 11:18:10;;;;;;;1.08;0.95;;;15.30;99.90;;;;;;5108165;28;20054;-67
2022/09/04 11:20:54;;;;;;;0.85;0.73;;;15.20;99.90;;;;;;5098355;28;20055;-63
2022/09/04 11:23:45;;;;;;;1.02;0.80;;;15.10;99.90;;;;;;5099092;28;20066;-63
2022/09/04 11:26:27;;;;;;;1.55;1.45;;;15.00;99.90;;;;;;5107325;28;20044;-63
2022/09/04 11:29:11;;;;;;;1.20;1.10;;;14.90;99.90;;;;;;5103179;27;20055;-66
2022/09/04 11:32:02;;;;;;;0.70;0.70;;;14.80;99.90;;;;;;5111632;27;20039;-66
2022/09/04 11:34:45;;;;;;;1.25;1.08;;;14.80;99.90;;;;;;5105557;27;20052;-62
2022/09/04 11:37:43;;;;;;;1.88;0.80;;;14.70;99.90;;;;;;5105301;27;20087;-67
2022/09/04 11:40:37;;;;;;;0.65;0.65;;;14.60;99.90;;;;;;5108283;27;20084;-70
2022/09/04 11:43:14;;;;;;;0.70;0.70;;;14.60;99.90;;;;;;5100739;28;20131;-63
2022/09/04 11:45:51;;;;;;;0.90;0.90;;;14.50;99.90;;;;;;5105469;28;20044;-67
2022/09/04 11:48:36;;;;;;;0.75;0.75;;;14.50;99.90;;;;;;5106475;28;20472;-63
2022/09/04 11:51:17;;;;;;;2.60;0.55;;;14.50;99.90;;;;;;5098241;28;20391;-63
2022/09/04 11:54:08;;;;;;;1.27;0.50;;;14.50;99.90;;;;;;5107139;28;20040;-70
2022/09/04 11:56:52;;;;;;;;;;;14.50;99.90;;;;;;5101548;28;20059;-70
2022/09/04 11:59:44;;;;;;;1.15;1.05;;;14.50;99.90;;;;;;5100081;28;19966;-64
2022/09/04 12:02:38;;;;;;;1.75;1.05;;;14.60;99.90;;;;;;5086503;28;20048;-64
2022/09/04 12:05:39;;;;;;;0.80;0.80;;;14.50;99.90;;;;;;5109036;28;20042;-66
2022/09/04 12:08:34;;;;;;;2.08;1.20;;;14.60;99.90;;;;;;5097687;28;20047;-64
2022/09/04 12:11:33;;;;;;;1.30;1.00;;;14.70;99.90;;;;;;5108580;28;20035;-64
2022/09/04 12:14:18;;;;;;;1.20;1.10;;;14.80;99.90;;;;;;5097201;28;20066;-67
2022/09/04 12:17:11;;;;;;;1.10;1.00;;;14.90;99.90;;;;;;5087570;27;20221;-66
2022/09/04 12:19:38;;;;;;;2.58;1.63;;;15.00;99.90;;;;;;5102424;27;20130;-67
2022/09/04 12:22:30;;;;;;;1.98;0.90;;;15.00;99.90;;;;;;5103794;28;20119;-66
2022/09/04 12:25:38;;;;;;;1.60;0.95;;;14.90;99.90;;;;;;5111757;27;20479;-72
2022/09/04 12:28:32;;;;;;;1.42;1.30;;;14.90;99.90;;;;;;5046989;28;20072;-67
2022/09/04 12:31:21;;;;;;;1.83;1.00;;;14.90;99.90;;;;;;5106036;27;20040;-69
2022/09/04 12:34:29;;;;;;;1.00;0.82;;;15.00;99.90;;;;;;5103548;28;20044;-76
2022/09/04 12:37:20;;;;;;;1.30;1.20;;;15.10;99.90;;;;;;5010037;28;20079;-65
2022/09/04 12:39:56;;;;;;;0.75;0.63;;;15.10;99.90;;;;;;5007132;28;20189;-66
2022/09/04 12:42:56;;;;;;;1.02;0.90;;;15.10;99.90;;;;;;5082534;28;20050;-64
2022/09/04 12:45:31;;;;;;;2.20;1.00;;;14.90;99.90;;;;;;5106351;28;20089;-64
2022/09/04 12:48:08;;;;;;;1.85;1.02;;;14.90;99.90;;;;;;5110081;28;20278;-64
2022/09/04 12:50:44;;;;;;;1.80;1.50;;;14.70;99.90;;;;;;5120906;27;20112;-68
2022/09/04 12:53:45;;;;;;;3.75;3.35;;;14.60;99.90;;;;;;5098235;28;20040;-67
2022/09/04 12:56:39;;;;;;;2.08;1.90;;;14.50;99.90;;;;;;5100723;28;20051;-65
2022/09/04 12:59:39;;;;;;;4.85;3.70;;;14.40;99.90;;;;;;5108219;28;20035;-75
2022/09/04 13:02:20;;;;;;;1.25;1.05;;;14.50;99.90;;;;;;5081129;28;20105;-67
2022/09/04 13:05:05;;;;;;;1.30;1.05;;;14.50;99.90;;;;;;5106128;27;20772;-72
2022/09/04 13:07:45;;;;;;;1.10;1.00;;;14.60;99.90;;;;;;5110071;28;20093;-70
2022/09/04 13:10:41;;;;;;;1.13;0.77;;;14.60;99.90;;;;;;5110648;28;20071;-63
2022/09/04 13:13:21;;;;;;;1.02;1.00;;;14.70;99.90;;;;;;5028597;28;20156;-63
2022/09/04 13:16:07;;;;;;;1.08;0.93;;;14.70;99.90;;;;;;5109022;28;20115;-68
2022/09/04 13:18:47;;;;;;;0.75;0.75;;;14.90;99.90;;;;;;5110214;27;20031;-64
2022/09/04 13:21:24;;;;;;;1.05;0.60;;;15.10;99.90;;;;;;5107418;28;20088;-65
2022/09/04 13:24:19;;;;;;;0.80;0.80;;;15.20;99.90;;;;;;5108123;28;20071;-63
2022/09/04 13:27:08;;;;;;;0.65;0.45;;;15.40;99.90;;;;;;5109891;27;20086;-64
2022/09/04 13:30:08;;;;;;;1.38;1.27;;;15.50;99.90;;;;;;5114758;27;20066;-75
2022/09/04 13:33:04;;;;;;;0.43;0.43;;;15.60;99.90;;;;;;5109097;27;20047;-65
2022/09/04 13:36:06;;;;;;;0.63;0.63;;;15.70;99.90;;;;;;5112131;27;20043;-64
2022/09/04 13:38:56;;;;;;;0.68;0.68;;;15.70;99.90;;;;;;5102765;28;20104;-63
2022/09/04 13:41:49;;;;;;;0.68;0.63;;;15.70;99.90;;;;;;5103883;27;20520;-70
2022/09/04 13:44:28;;;;;;;1.00;0.47;;;15.70;99.90;;;;;;5115479;27;20078;-71
2022/09/04 13:47:03;;;;;;;1.58;0.50;;;15.70;99.90;;;;;;5108667;27;20059;-64
2022/09/04 13:49:37;;;;;;;0.73;0.70;;;15.80;99.90;;;;;;5105554;27;20130;-63
2022/09/04 13:52:17;;;;;;;1.48;0.50;;;15.70;99.90;;;;;;5109553;27;20067;-63
2022/09/04 13:54:57;;;;;;;0.47;0.45;;;15.70;99.90;;;;;;5106673;27;20100;-70
2022/09/04 13:57:28;;;;;;;0.88;0.70;;;15.80;99.90;;;;;;5110480;27;20047;-65
2022/09/04 14:00:01;;;;;;;0.70;0.35;;;16.10;99.90;;;;;;5108666;27;20141;-66
2022/09/04 14:02:30;;;;;;;2.47;1.45;;;16.30;99.90;;;;;;5119033;27;20035;-64
2022/09/04 14:05:19;;;;;;;0.75;0.45;;;16.50;99.90;;;;;;5111493;27;20040;-64
2022/09/04 14:07:49;;;;;;;0.90;0.45;;;16.60;99.90;;;;;;5109898;27;20051;-63
2022/09/04 14:10:26;;;;;;;2.85;0.43;;;16.90;99.90;;;;;;5112118;27;20055;-65
2022/09/04 14:13:22;;;;;;;1.17;0.52;;;17.00;99.90;;;;;;5108741;27;20044;-63
2022/09/04 14:16:16;;;;;;;0.38;0.30;;;17.10;99.90;;;;;;5109610;27;20071;-69
2022/09/04 14:18:53;;;;;;;0.52;0.52;;;17.20;99.90;;;;;;5100171;28;20122;-74
2022/09/04 14:21:35;;;;;;;1.40;0.20;;;17.50;99.90;;;;;;5101425;28;20726;-66
2022/09/04 14:24:24;;;;;;;1.23;1.05;;;17.80;99.90;;;;;;5110475;27;20071;-64
2022/09/04 14:27:11;;;;;;;0.50;0.32;;;18.00;99.90;;;;;;5110097;27;20195;-64
2022/09/04 14:30:05;;;;;;;0.15;0.15;;;18.00;99.90;;;;;;5117040;27;20596;-73